sensor_id;sensor_type;location;lat;lon;timestamp;P1;durP1;ratioP1;P2;durP2;ratioP2
31910;SDS011;18457;52.432;16.914;2022-11-20T00:00:49;25.00;;;13.00;;
31910;SDS011;18457;52.432;16.914;2022-11-20T00:03:21;28.10;;;13.40;;
31910;SDS011;18457;52.432;16.914;2022-11-20T00:05:53;19.40;;;9.50;;
31910;SDS011;18457;52.432;16.914;2022-11-20T00:08:29;26.90;;;12.90;;
31910;SDS011;18457;52.432;16.914;2022-11-20T00:11:03;21.50;;;9.80;;
31910;SDS011;18457;52.432;16.914;2022-11-20T00:13:43;22.90;;;13.10;;
31910;SDS011;18457;52.432;16.914;2022-11-20T00:16:17;26.70;;;14.50;;
31910;SDS011;18457;52.432;16.914;2022-11-20T00:18:50;31.10;;;14.00;;
31910;SDS011;18457;52.432;16.914;2022-11-20T00:21:23;28.40;;;15.70;;
31910;SDS011;18457;52.432;16.914;2022-11-20T00:23:57;33.30;;;14.80;;
31910;SDS011;18457;52.432;16.914;2022-11-20T00:29:00;29.60;;;13.90;;
31910;SDS011;18457;52.432;16.914;2022-11-20T00:31:32;33.90;;;14.20;;
31910;SDS011;18457;52.432;16.914;2022-11-20T00:34:05;32.30;;;15.00;;
31910;SDS011;18457;52.432;16.914;2022-11-20T00:36:36;25.20;;;10.10;;
31910;SDS011;18457;52.432;16.914;2022-11-20T00:39:08;29.00;;;14.40;;
31910;SDS011;18457;52.432;16.914;2022-11-20T00:41:40;29.00;;;14.50;;
31910;SDS011;18457;52.432;16.914;2022-11-20T00:44:12;29.20;;;14.30;;
31910;SDS011;18457;52.432;16.914;2022-11-20T00:46:43;27.80;;;14.00;;
31910;SDS011;18457;52.432;16.914;2022-11-20T00:49:15;32.70;;;13.30;;
31910;SDS011;18457;52.432;16.914;2022-11-20T00:51:48;26.30;;;12.90;;
31910;SDS011;18457;52.432;16.914;2022-11-20T00:54:19;30.00;;;14.10;;
31910;SDS011;18457;52.432;16.914;2022-11-20T00:56:53;27.40;;;14.10;;
31910;SDS011;18457;52.432;16.914;2022-11-20T00:59:25;31.00;;;14.60;;
31910;SDS011;18457;52.432;16.914;2022-11-20T01:01:57;28.20;;;13.30;;
31910;SDS011;18457;52.432;16.914;2022-11-20T01:04:29;32.40;;;14.00;;
31910;SDS011;18457;52.432;16.914;2022-11-20T01:07:00;29.10;;;14.20;;
31910;SDS011;18457;52.432;16.914;2022-11-20T01:09:32;24.20;;;12.50;;
31910;SDS011;18457;52.432;16.914;2022-11-20T01:12:05;26.50;;;12.90;;
31910;SDS011;18457;52.432;16.914;2022-11-20T01:14:37;26.50;;;12.30;;
31910;SDS011;18457;52.432;16.914;2022-11-20T01:17:09;26.00;;;12.70;;
31910;SDS011;18457;52.432;16.914;2022-11-20T01:19:41;27.30;;;12.40;;
31910;SDS011;18457;52.432;16.914;2022-11-20T01:22:13;22.80;;;11.80;;
31910;SDS011;18457;52.432;16.914;2022-11-20T01:24:44;25.00;;;12.30;;
31910;SDS011;18457;52.432;16.914;2022-11-20T01:27:16;25.40;;;11.90;;
31910;SDS011;18457;52.432;16.914;2022-11-20T01:29:49;26.10;;;11.70;;
31910;SDS011;18457;52.432;16.914;2022-11-20T01:32:27;27.20;;;13.00;;
31910;SDS011;18457;52.432;16.914;2022-11-20T01:34:59;26.60;;;12.20;;
31910;SDS011;18457;52.432;16.914;2022-11-20T01:37:31;26.60;;;12.60;;
31910;SDS011;18457;52.432;16.914;2022-11-20T01:40:03;18.10;;;8.60;;
31910;SDS011;18457;52.432;16.914;2022-11-20T01:42:35;27.60;;;12.20;;
31910;SDS011;18457;52.432;16.914;2022-11-20T01:48:35;25.40;;;12.20;;
31910;SDS011;18457;52.432;16.914;2022-11-20T01:51:13;22.90;;;12.60;;
31910;SDS011;18457;52.432;16.914;2022-11-20T01:53:51;26.80;;;13.00;;
31910;SDS011;18457;52.432;16.914;2022-11-20T01:56:26;28.00;;;12.40;;
31910;SDS011;18457;52.432;16.914;2022-11-20T01:59:01;27.20;;;13.10;;
31910;SDS011;18457;52.432;16.914;2022-11-20T02:01:37;26.00;;;13.20;;
31910;SDS011;18457;52.432;16.914;2022-11-20T02:04:09;28.80;;;12.90;;
31910;SDS011;18457;52.432;16.914;2022-11-20T02:06:44;28.00;;;13.50;;
31910;SDS011;18457;52.432;16.914;2022-11-20T02:09:18;27.90;;;13.50;;
31910;SDS011;18457;52.432;16.914;2022-11-20T02:11:50;30.70;;;13.50;;
31910;SDS011;18457;52.432;16.914;2022-11-20T02:14:22;29.70;;;13.70;;
31910;SDS011;18457;52.432;16.914;2022-11-20T02:16:55;27.60;;;12.80;;
31910;SDS011;18457;52.432;16.914;2022-11-20T02:19:28;29.90;;;14.90;;
31910;SDS011;18457;52.432;16.914;2022-11-20T02:22:02;26.80;;;13.50;;
31910;SDS011;18457;52.432;16.914;2022-11-20T02:24:37;28.40;;;14.30;;
31910;SDS011;18457;52.432;16.914;2022-11-20T02:27:10;31.90;;;14.90;;
31910;SDS011;18457;52.432;16.914;2022-11-20T02:29:44;28.50;;;13.70;;
31910;SDS011;18457;52.432;16.914;2022-11-20T02:32:20;28.40;;;13.60;;
31910;SDS011;18457;52.432;16.914;2022-11-20T02:34:54;30.70;;;15.10;;
31910;SDS011;18457;52.432;16.914;2022-11-20T02:37:27;34.30;;;15.00;;
31910;SDS011;18457;52.432;16.914;2022-11-20T02:40:05;31.10;;;15.90;;
31910;SDS011;18457;52.432;16.914;2022-11-20T02:42:39;34.10;;;15.40;;
31910;SDS011;18457;52.432;16.914;2022-11-20T02:45:10;29.70;;;14.40;;
31910;SDS011;18457;52.432;16.914;2022-11-20T02:47:43;31.60;;;14.90;;
31910;SDS011;18457;52.432;16.914;2022-11-20T02:50:15;32.60;;;16.60;;
31910;SDS011;18457;52.432;16.914;2022-11-20T02:52:47;33.00;;;16.60;;
31910;SDS011;18457;52.432;16.914;2022-11-20T02:55:18;31.60;;;16.10;;
31910;SDS011;18457;52.432;16.914;2022-11-20T02:57:50;34.80;;;16.30;;
31910;SDS011;18457;52.432;16.914;2022-11-20T03:00:22;36.20;;;16.90;;
31910;SDS011;18457;52.432;16.914;2022-11-20T03:02:54;34.50;;;16.50;;
31910;SDS011;18457;52.432;16.914;2022-11-20T03:05:26;33.20;;;16.30;;
31910;SDS011;18457;52.432;16.914;2022-11-20T03:07:58;35.40;;;16.30;;
31910;SDS011;18457;52.432;16.914;2022-11-20T03:10:29;35.40;;;16.40;;
31910;SDS011;18457;52.432;16.914;2022-11-20T03:13:01;27.30;;;11.80;;
31910;SDS011;18457;52.432;16.914;2022-11-20T03:15:33;31.80;;;14.90;;
31910;SDS011;18457;52.432;16.914;2022-11-20T03:18:07;34.00;;;16.40;;
31910;SDS011;18457;52.432;16.914;2022-11-20T03:20:38;36.00;;;16.50;;
31910;SDS011;18457;52.432;16.914;2022-11-20T03:23:10;37.40;;;16.80;;
31910;SDS011;18457;52.432;16.914;2022-11-20T03:25:42;36.50;;;17.60;;
31910;SDS011;18457;52.432;16.914;2022-11-20T03:28:13;33.70;;;16.50;;
31910;SDS011;18457;52.432;16.914;2022-11-20T03:30:45;31.10;;;14.70;;
31910;SDS011;18457;52.432;16.914;2022-11-20T03:33:17;35.20;;;17.10;;
31910;SDS011;18457;52.432;16.914;2022-11-20T03:35:49;34.70;;;15.90;;
31910;SDS011;18457;52.432;16.914;2022-11-20T03:38:20;33.50;;;16.50;;
31910;SDS011;18457;52.432;16.914;2022-11-20T03:40:57;33.80;;;15.50;;
31910;SDS011;18457;52.432;16.914;2022-11-20T03:43:30;36.10;;;16.80;;
31910;SDS011;18457;52.432;16.914;2022-11-20T03:46:03;32.50;;;16.00;;
31910;SDS011;18457;52.432;16.914;2022-11-20T03:48:35;34.30;;;16.20;;
31910;SDS011;18457;52.432;16.914;2022-11-20T03:51:08;36.20;;;17.50;;
31910;SDS011;18457;52.432;16.914;2022-11-20T03:53:42;37.40;;;16.70;;
31910;SDS011;18457;52.432;16.914;2022-11-20T03:56:16;37.00;;;16.60;;
31910;SDS011;18457;52.432;16.914;2022-11-20T03:58:50;39.50;;;17.30;;
31910;SDS011;18457;52.432;16.914;2022-11-20T04:01:22;24.10;;;11.10;;
31910;SDS011;18457;52.432;16.914;2022-11-20T04:03:56;35.00;;;16.50;;
31910;SDS011;18457;52.432;16.914;2022-11-20T04:06:28;34.20;;;17.50;;
31910;SDS011;18457;52.432;16.914;2022-11-20T04:09:03;37.40;;;17.10;;
31910;SDS011;18457;52.432;16.914;2022-11-20T04:11:36;40.60;;;17.00;;
31910;SDS011;18457;52.432;16.914;2022-11-20T04:14:13;37.40;;;16.60;;
31910;SDS011;18457;52.432;16.914;2022-11-20T04:16:45;36.00;;;16.20;;
31910;SDS011;18457;52.432;16.914;2022-11-20T04:19:17;26.80;;;11.80;;
31910;SDS011;18457;52.432;16.914;2022-11-20T04:21:50;30.20;;;15.80;;
31910;SDS011;18457;52.432;16.914;2022-11-20T04:26:52;36.70;;;16.40;;
31910;SDS011;18457;52.432;16.914;2022-11-20T04:29:24;36.60;;;17.30;;
31910;SDS011;18457;52.432;16.914;2022-11-20T04:31:56;38.00;;;16.90;;
31910;SDS011;18457;52.432;16.914;2022-11-20T04:34:27;37.30;;;17.40;;
31910;SDS011;18457;52.432;16.914;2022-11-20T04:36:59;42.60;;;17.20;;
31910;SDS011;18457;52.432;16.914;2022-11-20T04:39:31;49.70;;;21.20;;
31910;SDS011;18457;52.432;16.914;2022-11-20T04:42:03;43.40;;;19.40;;
31910;SDS011;18457;52.432;16.914;2022-11-20T04:44:52;61.50;;;20.30;;
31910;SDS011;18457;52.432;16.914;2022-11-20T04:47:24;59.30;;;20.00;;
31910;SDS011;18457;52.432;16.914;2022-11-20T04:49:56;51.90;;;19.80;;
31910;SDS011;18457;52.432;16.914;2022-11-20T04:52:28;58.30;;;22.70;;
31910;SDS011;18457;52.432;16.914;2022-11-20T04:54:59;58.00;;;21.60;;
31910;SDS011;18457;52.432;16.914;2022-11-20T04:57:31;37.60;;;16.60;;
31910;SDS011;18457;52.432;16.914;2022-11-20T05:00:03;60.60;;;22.70;;
31910;SDS011;18457;52.432;16.914;2022-11-20T05:02:37;54.70;;;20.90;;
31910;SDS011;18457;52.432;16.914;2022-11-20T05:05:09;53.00;;;21.50;;
31910;SDS011;18457;52.432;16.914;2022-11-20T05:07:41;54.50;;;20.80;;
31910;SDS011;18457;52.432;16.914;2022-11-20T05:10:14;46.00;;;19.00;;
31910;SDS011;18457;52.432;16.914;2022-11-20T05:12:47;54.60;;;21.30;;
31910;SDS011;18457;52.432;16.914;2022-11-20T05:15:19;45.70;;;20.10;;
31910;SDS011;18457;52.432;16.914;2022-11-20T05:17:51;45.30;;;19.50;;
31910;SDS011;18457;52.432;16.914;2022-11-20T05:20:23;45.90;;;18.90;;
31910;SDS011;18457;52.432;16.914;2022-11-20T05:22:57;39.40;;;18.60;;
31910;SDS011;18457;52.432;16.914;2022-11-20T05:25:29;37.10;;;16.70;;
31910;SDS011;18457;52.432;16.914;2022-11-20T05:28:00;34.90;;;17.30;;
31910;SDS011;18457;52.432;16.914;2022-11-20T05:30:33;37.30;;;16.50;;
31910;SDS011;18457;52.432;16.914;2022-11-20T05:33:04;40.70;;;17.40;;
31910;SDS011;18457;52.432;16.914;2022-11-20T05:35:37;45.30;;;18.80;;
31910;SDS011;18457;52.432;16.914;2022-11-20T05:38:09;22.40;;;10.60;;
31910;SDS011;18457;52.432;16.914;2022-11-20T05:40:41;36.00;;;16.90;;
31910;SDS011;18457;52.432;16.914;2022-11-20T05:43:13;66.40;;;21.70;;
31910;SDS011;18457;52.432;16.914;2022-11-20T05:45:52;63.50;;;19.60;;
31910;SDS011;18457;52.432;16.914;2022-11-20T05:48:24;48.70;;;18.50;;
31910;SDS011;18457;52.432;16.914;2022-11-20T05:50:57;36.60;;;13.50;;
31910;SDS011;18457;52.432;16.914;2022-11-20T05:53:30;39.50;;;17.20;;
31910;SDS011;18457;52.432;16.914;2022-11-20T05:56:04;42.60;;;17.90;;
31910;SDS011;18457;52.432;16.914;2022-11-20T05:58:40;42.50;;;16.70;;
31910;SDS011;18457;52.432;16.914;2022-11-20T06:01:16;39.70;;;17.30;;
31910;SDS011;18457;52.432;16.914;2022-11-20T06:03:50;39.10;;;17.00;;
31910;SDS011;18457;52.432;16.914;2022-11-20T06:06:22;39.30;;;18.50;;
31910;SDS011;18457;52.432;16.914;2022-11-20T06:08:55;39.10;;;17.80;;
31910;SDS011;18457;52.432;16.914;2022-11-20T06:11:28;46.70;;;19.10;;
31910;SDS011;18457;52.432;16.914;2022-11-20T06:14:00;37.30;;;17.50;;
31910;SDS011;18457;52.432;16.914;2022-11-20T06:16:31;42.30;;;18.30;;
31910;SDS011;18457;52.432;16.914;2022-11-20T06:19:03;41.40;;;18.00;;
31910;SDS011;18457;52.432;16.914;2022-11-20T06:21:35;38.00;;;16.30;;
31910;SDS011;18457;52.432;16.914;2022-11-20T06:24:08;30.80;;;15.40;;
31910;SDS011;18457;52.432;16.914;2022-11-20T06:26:40;37.40;;;18.40;;
31910;SDS011;18457;52.432;16.914;2022-11-20T06:29:12;41.60;;;19.30;;
31910;SDS011;18457;52.432;16.914;2022-11-20T06:31:44;29.40;;;13.90;;
31910;SDS011;18457;52.432;16.914;2022-11-20T06:34:16;40.30;;;20.40;;
31910;SDS011;18457;52.432;16.914;2022-11-20T06:36:48;41.00;;;19.20;;
31910;SDS011;18457;52.432;16.914;2022-11-20T06:39:20;37.20;;;18.90;;
31910;SDS011;18457;52.432;16.914;2022-11-20T06:41:52;41.80;;;19.10;;
31910;SDS011;18457;52.432;16.914;2022-11-20T06:44:27;41.00;;;19.50;;
31910;SDS011;18457;52.432;16.914;2022-11-20T06:46:59;41.90;;;19.00;;
31910;SDS011;18457;52.432;16.914;2022-11-20T06:49:31;41.20;;;19.70;;
31910;SDS011;18457;52.432;16.914;2022-11-20T06:52:03;44.50;;;20.70;;
31910;SDS011;18457;52.432;16.914;2022-11-20T06:54:35;40.50;;;19.20;;
31910;SDS011;18457;52.432;16.914;2022-11-20T06:57:06;42.00;;;19.30;;
31910;SDS011;18457;52.432;16.914;2022-11-20T06:59:38;37.70;;;18.60;;
31910;SDS011;18457;52.432;16.914;2022-11-20T07:02:10;39.00;;;19.60;;
31910;SDS011;18457;52.432;16.914;2022-11-20T07:04:42;38.40;;;19.30;;
31910;SDS011;18457;52.432;16.914;2022-11-20T07:07:14;39.70;;;17.90;;
31910;SDS011;18457;52.432;16.914;2022-11-20T07:09:46;44.80;;;21.00;;
31910;SDS011;18457;52.432;16.914;2022-11-20T07:12:18;37.80;;;18.40;;
31910;SDS011;18457;52.432;16.914;2022-11-20T07:14:49;44.70;;;18.20;;
31910;SDS011;18457;52.432;16.914;2022-11-20T07:17:21;42.70;;;19.30;;
31910;SDS011;18457;52.432;16.914;2022-11-20T07:19:53;41.20;;;19.80;;
31910;SDS011;18457;52.432;16.914;2022-11-20T07:22:24;36.70;;;19.20;;
31910;SDS011;18457;52.432;16.914;2022-11-20T07:24:56;27.40;;;12.80;;
31910;SDS011;18457;52.432;16.914;2022-11-20T07:27:28;40.70;;;20.30;;
31910;SDS011;18457;52.432;16.914;2022-11-20T07:30:00;36.90;;;16.40;;
31910;SDS011;18457;52.432;16.914;2022-11-20T07:32:33;37.80;;;17.50;;
31910;SDS011;18457;52.432;16.914;2022-11-20T07:35:05;38.50;;;18.10;;
31910;SDS011;18457;52.432;16.914;2022-11-20T07:37:38;48.10;;;19.40;;
31910;SDS011;18457;52.432;16.914;2022-11-20T07:40:10;35.40;;;17.80;;
31910;SDS011;18457;52.432;16.914;2022-11-20T07:42:48;40.70;;;18.00;;
31910;SDS011;18457;52.432;16.914;2022-11-20T07:45:21;43.20;;;19.50;;
31910;SDS011;18457;52.432;16.914;2022-11-20T07:47:54;37.60;;;18.30;;
31910;SDS011;18457;52.432;16.914;2022-11-20T07:50:26;42.90;;;20.00;;
31910;SDS011;18457;52.432;16.914;2022-11-20T07:53:06;40.50;;;19.70;;
31910;SDS011;18457;52.432;16.914;2022-11-20T07:55:38;40.30;;;17.60;;
31910;SDS011;18457;52.432;16.914;2022-11-20T07:58:10;25.90;;;11.30;;
31910;SDS011;18457;52.432;16.914;2022-11-20T08:00:42;44.50;;;20.70;;
31910;SDS011;18457;52.432;16.914;2022-11-20T08:03:14;46.20;;;20.80;;
31910;SDS011;18457;52.432;16.914;2022-11-20T08:05:52;40.30;;;19.80;;
31910;SDS011;18457;52.432;16.914;2022-11-20T08:08:28;45.90;;;18.90;;
31910;SDS011;18457;52.432;16.914;2022-11-20T08:11:02;44.10;;;19.90;;
31910;SDS011;18457;52.432;16.914;2022-11-20T08:14:00;47.60;;;19.80;;
31910;SDS011;18457;52.432;16.914;2022-11-20T08:16:46;46.30;;;21.30;;
31910;SDS011;18457;52.432;16.914;2022-11-20T08:19:19;45.70;;;19.30;;
31910;SDS011;18457;52.432;16.914;2022-11-20T08:21:52;45.50;;;19.50;;
31910;SDS011;18457;52.432;16.914;2022-11-20T08:24:25;43.90;;;20.20;;
31910;SDS011;18457;52.432;16.914;2022-11-20T08:26:58;40.40;;;19.20;;
31910;SDS011;18457;52.432;16.914;2022-11-20T08:29:30;49.10;;;20.80;;
31910;SDS011;18457;52.432;16.914;2022-11-20T08:32:02;46.90;;;21.40;;
31910;SDS011;18457;52.432;16.914;2022-11-20T08:34:40;44.20;;;18.70;;
31910;SDS011;18457;52.432;16.914;2022-11-20T08:37:12;43.90;;;19.50;;
31910;SDS011;18457;52.432;16.914;2022-11-20T08:39:44;50.00;;;20.10;;
31910;SDS011;18457;52.432;16.914;2022-11-20T08:44:49;44.60;;;18.60;;
31910;SDS011;18457;52.432;16.914;2022-11-20T08:47:21;44.30;;;18.80;;
31910;SDS011;18457;52.432;16.914;2022-11-20T08:49:53;44.70;;;20.40;;
31910;SDS011;18457;52.432;16.914;2022-11-20T08:52:26;42.70;;;20.30;;
31910;SDS011;18457;52.432;16.914;2022-11-20T08:54:58;44.50;;;20.10;;
31910;SDS011;18457;52.432;16.914;2022-11-20T08:57:32;41.00;;;19.00;;
31910;SDS011;18457;52.432;16.914;2022-11-20T09:00:09;41.00;;;18.80;;
31910;SDS011;18457;52.432;16.914;2022-11-20T09:02:43;41.40;;;19.70;;
31910;SDS011;18457;52.432;16.914;2022-11-20T09:05:16;48.50;;;20.90;;
31910;SDS011;18457;52.432;16.914;2022-11-20T09:07:48;46.90;;;20.50;;
31910;SDS011;18457;52.432;16.914;2022-11-20T09:10:21;43.90;;;20.80;;
31910;SDS011;18457;52.432;16.914;2022-11-20T09:12:54;45.90;;;19.60;;
31910;SDS011;18457;52.432;16.914;2022-11-20T09:15:27;48.40;;;19.70;;
31910;SDS011;18457;52.432;16.914;2022-11-20T09:17:59;41.80;;;19.80;;
31910;SDS011;18457;52.432;16.914;2022-11-20T09:20:33;42.20;;;19.00;;
31910;SDS011;18457;52.432;16.914;2022-11-20T09:23:05;39.80;;;18.70;;
31910;SDS011;18457;52.432;16.914;2022-11-20T09:25:37;44.70;;;19.80;;
31910;SDS011;18457;52.432;16.914;2022-11-20T09:28:10;45.80;;;19.00;;
31910;SDS011;18457;52.432;16.914;2022-11-20T09:30:42;42.60;;;18.30;;
31910;SDS011;18457;52.432;16.914;2022-11-20T09:33:15;46.00;;;19.60;;
31910;SDS011;18457;52.432;16.914;2022-11-20T09:35:48;40.90;;;19.20;;
31910;SDS011;18457;52.432;16.914;2022-11-20T09:38:20;44.90;;;19.90;;
31910;SDS011;18457;52.432;16.914;2022-11-20T09:40:55;30.10;;;14.40;;
31910;SDS011;18457;52.432;16.914;2022-11-20T09:43:36;44.80;;;19.60;;
31910;SDS011;18457;52.432;16.914;2022-11-20T09:46:17;43.50;;;19.00;;
31910;SDS011;18457;52.432;16.914;2022-11-20T09:52:00;45.50;;;20.10;;
31910;SDS011;18457;52.432;16.914;2022-11-20T09:54:40;44.10;;;20.00;;
31910;SDS011;18457;52.432;16.914;2022-11-20T09:57:13;40.80;;;18.10;;
31910;SDS011;18457;52.432;16.914;2022-11-20T09:59:50;43.40;;;20.10;;
31910;SDS011;18457;52.432;16.914;2022-11-20T10:02:27;43.30;;;19.20;;
31910;SDS011;18457;52.432;16.914;2022-11-20T10:05:10;47.90;;;19.90;;
31910;SDS011;18457;52.432;16.914;2022-11-20T10:07:51;47.00;;;21.50;;
31910;SDS011;18457;52.432;16.914;2022-11-20T10:10:30;42.80;;;18.90;;
31910;SDS011;18457;52.432;16.914;2022-11-20T10:15:56;47.50;;;20.60;;
31910;SDS011;18457;52.432;16.914;2022-11-20T10:18:42;45.90;;;20.10;;
31910;SDS011;18457;52.432;16.914;2022-11-20T10:21:26;45.10;;;20.20;;
31910;SDS011;18457;52.432;16.914;2022-11-20T10:24:27;50.00;;;19.50;;
31910;SDS011;18457;52.432;16.914;2022-11-20T10:27:12;50.70;;;21.60;;
31910;SDS011;18457;52.432;16.914;2022-11-20T10:30:00;47.30;;;21.20;;
31910;SDS011;18457;52.432;16.914;2022-11-20T10:32:39;47.30;;;20.80;;
31910;SDS011;18457;52.432;16.914;2022-11-20T10:35:18;50.00;;;21.50;;
31910;SDS011;18457;52.432;16.914;2022-11-20T10:37:56;44.30;;;20.20;;
31910;SDS011;18457;52.432;16.914;2022-11-20T10:40:32;45.40;;;20.80;;
31910;SDS011;18457;52.432;16.914;2022-11-20T10:43:10;48.30;;;20.00;;
31910;SDS011;18457;52.432;16.914;2022-11-20T10:45:50;45.20;;;19.90;;
31910;SDS011;18457;52.432;16.914;2022-11-20T10:48:28;46.30;;;20.10;;
31910;SDS011;18457;52.432;16.914;2022-11-20T10:51:18;37.90;;;18.10;;
31910;SDS011;18457;52.432;16.914;2022-11-20T10:54:03;41.70;;;19.20;;
31910;SDS011;18457;52.432;16.914;2022-11-20T10:56:45;43.10;;;19.90;;
31910;SDS011;18457;52.432;16.914;2022-11-20T10:59:35;43.00;;;19.40;;
31910;SDS011;18457;52.432;16.914;2022-11-20T11:02:18;50.20;;;20.80;;
31910;SDS011;18457;52.432;16.914;2022-11-20T11:04:51;45.50;;;19.70;;
31910;SDS011;18457;52.432;16.914;2022-11-20T11:07:24;39.40;;;19.40;;
31910;SDS011;18457;52.432;16.914;2022-11-20T11:12:47;43.90;;;20.90;;
31910;SDS011;18457;52.432;16.914;2022-11-20T11:15:26;41.60;;;18.80;;
31910;SDS011;18457;52.432;16.914;2022-11-20T11:17:59;40.10;;;17.20;;
31910;SDS011;18457;52.432;16.914;2022-11-20T11:20:31;38.80;;;19.00;;
31910;SDS011;18457;52.432;16.914;2022-11-20T11:23:05;43.30;;;19.50;;
31910;SDS011;18457;52.432;16.914;2022-11-20T11:25:58;46.20;;;19.10;;
31910;SDS011;18457;52.432;16.914;2022-11-20T11:28:31;42.80;;;18.00;;
31910;SDS011;18457;52.432;16.914;2022-11-20T11:31:04;40.30;;;18.80;;
31910;SDS011;18457;52.432;16.914;2022-11-20T11:33:35;40.60;;;17.20;;
31910;SDS011;18457;52.432;16.914;2022-11-20T11:36:16;50.00;;;21.70;;
31910;SDS011;18457;52.432;16.914;2022-11-20T11:38:53;36.70;;;18.00;;
31910;SDS011;18457;52.432;16.914;2022-11-20T11:41:33;42.70;;;20.10;;
31910;SDS011;18457;52.432;16.914;2022-11-20T11:44:14;41.10;;;18.10;;
31910;SDS011;18457;52.432;16.914;2022-11-20T11:47:11;36.20;;;17.70;;
31910;SDS011;18457;52.432;16.914;2022-11-20T11:50:02;39.80;;;17.40;;
31910;SDS011;18457;52.432;16.914;2022-11-20T11:52:45;47.40;;;20.40;;
31910;SDS011;18457;52.432;16.914;2022-11-20T11:55:25;40.50;;;18.30;;
31910;SDS011;18457;52.432;16.914;2022-11-20T12:00:41;43.00;;;19.30;;
31910;SDS011;18457;52.432;16.914;2022-11-20T12:03:23;42.10;;;18.10;;
31910;SDS011;18457;52.432;16.914;2022-11-20T12:05:59;44.70;;;20.70;;
31910;SDS011;18457;52.432;16.914;2022-11-20T12:08:39;40.70;;;20.00;;
31910;SDS011;18457;52.432;16.914;2022-11-20T12:11:19;38.30;;;19.30;;
31910;SDS011;18457;52.432;16.914;2022-11-20T12:13:55;41.60;;;17.70;;
31910;SDS011;18457;52.432;16.914;2022-11-20T12:16:34;40.70;;;19.00;;
31910;SDS011;18457;52.432;16.914;2022-11-20T12:19:09;39.40;;;17.70;;
31910;SDS011;18457;52.432;16.914;2022-11-20T12:21:55;45.60;;;18.50;;
31910;SDS011;18457;52.432;16.914;2022-11-20T12:24:36;42.80;;;18.60;;
31910;SDS011;18457;52.432;16.914;2022-11-20T12:27:21;40.00;;;18.40;;
31910;SDS011;18457;52.432;16.914;2022-11-20T12:30:14;44.00;;;19.90;;
31910;SDS011;18457;52.432;16.914;2022-11-20T12:35:48;47.70;;;21.70;;
31910;SDS011;18457;52.432;16.914;2022-11-20T12:41:43;47.00;;;20.10;;
31910;SDS011;18457;52.432;16.914;2022-11-20T12:44:57;44.50;;;20.60;;
31910;SDS011;18457;52.432;16.914;2022-11-20T12:47:55;43.90;;;20.30;;
31910;SDS011;18457;52.432;16.914;2022-11-20T12:50:49;43.00;;;19.00;;
31910;SDS011;18457;52.432;16.914;2022-11-20T12:53:45;46.80;;;21.10;;
31910;SDS011;18457;52.432;16.914;2022-11-20T12:56:30;46.50;;;20.20;;
31910;SDS011;18457;52.432;16.914;2022-11-20T12:59:16;43.20;;;20.00;;
31910;SDS011;18457;52.432;16.914;2022-11-20T13:02:01;42.50;;;20.40;;
31910;SDS011;18457;52.432;16.914;2022-11-20T13:04:52;41.60;;;20.10;;
31910;SDS011;18457;52.432;16.914;2022-11-20T13:07:47;44.70;;;20.40;;
31910;SDS011;18457;52.432;16.914;2022-11-20T13:10:25;51.50;;;23.40;;
31910;SDS011;18457;52.432;16.914;2022-11-20T13:13:04;42.60;;;21.20;;
31910;SDS011;18457;52.432;16.914;2022-11-20T13:15:47;32.90;;;15.10;;
31910;SDS011;18457;52.432;16.914;2022-11-20T13:18:24;49.80;;;21.80;;
31910;SDS011;18457;52.432;16.914;2022-11-20T13:23:28;43.40;;;19.30;;
31910;SDS011;18457;52.432;16.914;2022-11-20T13:26:04;40.90;;;18.70;;
31910;SDS011;18457;52.432;16.914;2022-11-20T13:28:44;44.10;;;19.10;;
31910;SDS011;18457;52.432;16.914;2022-11-20T13:34:02;39.50;;;17.70;;
31910;SDS011;18457;52.432;16.914;2022-11-20T13:36:35;44.80;;;20.20;;
31910;SDS011;18457;52.432;16.914;2022-11-20T13:39:25;45.80;;;21.60;;
31910;SDS011;18457;52.432;16.914;2022-11-20T13:41:59;44.00;;;20.10;;
31910;SDS011;18457;52.432;16.914;2022-11-20T13:44:35;48.40;;;23.30;;
31910;SDS011;18457;52.432;16.914;2022-11-20T13:47:19;43.70;;;20.50;;
31910;SDS011;18457;52.432;16.914;2022-11-20T13:52:30;47.90;;;20.40;;
31910;SDS011;18457;52.432;16.914;2022-11-20T13:55:15;44.40;;;20.80;;
31910;SDS011;18457;52.432;16.914;2022-11-20T13:57:56;50.60;;;21.70;;
31910;SDS011;18457;52.432;16.914;2022-11-20T14:00:47;44.20;;;21.10;;
31910;SDS011;18457;52.432;16.914;2022-11-20T14:03:21;50.20;;;20.70;;
31910;SDS011;18457;52.432;16.914;2022-11-20T14:06:20;45.50;;;20.50;;
31910;SDS011;18457;52.432;16.914;2022-11-20T14:08:57;51.70;;;22.90;;
31910;SDS011;18457;52.432;16.914;2022-11-20T14:11:30;49.70;;;22.70;;
31910;SDS011;18457;52.432;16.914;2022-11-20T14:14:02;54.00;;;23.70;;
31910;SDS011;18457;52.432;16.914;2022-11-20T14:16:43;51.30;;;22.60;;
31910;SDS011;18457;52.432;16.914;2022-11-20T14:22:17;57.10;;;26.40;;
31910;SDS011;18457;52.432;16.914;2022-11-20T14:25:00;67.50;;;27.30;;
31910;SDS011;18457;52.432;16.914;2022-11-20T14:27:35;58.80;;;28.00;;
31910;SDS011;18457;52.432;16.914;2022-11-20T14:30:13;61.10;;;28.00;;
31910;SDS011;18457;52.432;16.914;2022-11-20T14:32:47;62.10;;;28.70;;
31910;SDS011;18457;52.432;16.914;2022-11-20T14:35:23;70.80;;;30.00;;
31910;SDS011;18457;52.432;16.914;2022-11-20T14:37:57;66.30;;;28.80;;
31910;SDS011;18457;52.432;16.914;2022-11-20T14:40:32;62.20;;;27.90;;
31910;SDS011;18457;52.432;16.914;2022-11-20T14:43:15;54.70;;;25.90;;
31910;SDS011;18457;52.432;16.914;2022-11-20T14:45:52;63.50;;;28.00;;
31910;SDS011;18457;52.432;16.914;2022-11-20T14:48:30;59.80;;;28.30;;
31910;SDS011;18457;52.432;16.914;2022-11-20T14:51:09;57.50;;;26.10;;
31910;SDS011;18457;52.432;16.914;2022-11-20T14:53:41;62.90;;;26.90;;
31910;SDS011;18457;52.432;16.914;2022-11-20T14:56:14;61.70;;;27.20;;
31910;SDS011;18457;52.432;16.914;2022-11-20T14:58:56;72.80;;;28.50;;
31910;SDS011;18457;52.432;16.914;2022-11-20T15:01:29;63.00;;;26.80;;
31910;SDS011;18457;52.432;16.914;2022-11-20T15:04:05;61.50;;;28.10;;
31910;SDS011;18457;52.432;16.914;2022-11-20T15:06:49;69.10;;;29.90;;
31910;SDS011;18457;52.432;16.914;2022-11-20T15:09:23;69.60;;;29.30;;
31910;SDS011;18457;52.432;16.914;2022-11-20T15:11:55;66.60;;;30.00;;
31910;SDS011;18457;52.432;16.914;2022-11-20T15:14:31;63.60;;;29.90;;
31910;SDS011;18457;52.432;16.914;2022-11-20T15:17:03;66.00;;;29.70;;
31910;SDS011;18457;52.432;16.914;2022-11-20T15:19:34;45.50;;;21.10;;
31910;SDS011;18457;52.432;16.914;2022-11-20T15:22:09;63.30;;;29.70;;
31910;SDS011;18457;52.432;16.914;2022-11-20T15:24:45;72.60;;;32.10;;
31910;SDS011;18457;52.432;16.914;2022-11-20T15:27:17;70.30;;;31.80;;
31910;SDS011;18457;52.432;16.914;2022-11-20T15:32:20;68.00;;;28.70;;
31910;SDS011;18457;52.432;16.914;2022-11-20T15:34:52;75.20;;;27.90;;
31910;SDS011;18457;52.432;16.914;2022-11-20T15:37:24;67.20;;;30.10;;